Time;durP1;ratioP1;P1;durP2;ratioP2;P2;SDS_P1;SDS_P2;PMS_P1;PMS_P2;Temp;Humidity;BMP_temperature;BMP_pressure;BME280_temperature;BME280_humidity;BME280_pressure;Samples;Min_cycle;Max_cycle;Signal;HPM_P1;HPM_P2
2023/03/09 00:00:43;;;;;;;16.67;11.82;;;;;;;;;;5094705;28;20597;-66
2023/03/09 00:03:15;;;;;;;17.25;12.57;;;;;;;;;;5094616;28;20225;-66
2023/03/09 00:05:42;;;;;;;16.05;11.05;;;;;;;;;;5094520;28;20320;-66
2023/03/09 00:08:09;;;;;;;18.98;13.10;;;;;;;;;;5094302;28;20216;-66
2023/03/09 00:10:39;;;;;;;19.15;13.30;;;;;;;;;;5094324;28;20800;-67
2023/03/09 00:13:06;;;;;;;15.95;11.70;;;;;;;;;;5094236;28;20192;-65
2023/03/09 00:15:35;;;;;;;16.85;12.07;;;;;;;;;;5094300;28;20233;-65
2023/03/09 00:18:02;;;;;;;17.88;12.38;;;;;;;;;;5094096;28;20322;-66
2023/03/09 00:20:29;;;;;;;18.85;12.07;;;;;;;;;;5094302;28;20217;-66
2023/03/09 00:22:56;;;;;;;17.08;12.23;;;;;;;;;;5094069;28;20195;-66
2023/03/09 00:25:23;;;;;;;18.33;12.85;;;;;;;;;;5094028;28;20204;-65
2023/03/09 00:27:51;;;;;;;17.30;12.35;;;;;;;;;;5093683;28;20194;-65
2023/03/09 00:30:19;;;;;;;19.05;11.63;;;;;;;;;;5094030;28;20200;-65
2023/03/09 00:32:47;;;;;;;18.15;12.13;;;;;;;;;;5093820;28;20218;-65
2023/03/09 00:35:14;;;;;;;18.15;12.82;;;;;;;;;;5093927;28;20242;-65
2023/03/09 00:37:43;;;;;;;18.80;13.00;;;;;;;;;;5093773;28;20646;-65
2023/03/09 00:40:11;;;;;;;17.13;11.85;;;;;;;;;;5093744;28;20223;-65
2023/03/09 00:42:38;;;;;;;16.70;13.02;;;;;;;;;;5093860;28;20203;-65
2023/03/09 00:45:05;;;;;;;20.50;12.75;;;;;;;;;;5093260;28;20285;-65
2023/03/09 00:47:33;;;;;;;19.73;13.65;;;;;;;;;;5093769;28;20261;-66
2023/03/09 00:50:01;;;;;;;16.80;11.85;;;;;;;;;;5093505;28;20230;-65
2023/03/09 00:52:28;;;;;;;18.83;13.05;;;;;;;;;;5093397;28;20195;-65
2023/03/09 00:54:56;;;;;;;20.13;12.32;;;;;;;;;;5093588;28;20191;-66
2023/03/09 00:57:23;;;;;;;16.10;11.63;;;;;;;;;;5093462;28;20285;-65
2023/03/09 00:59:51;;;;;;;22.83;14.95;;;;;;;;;;5093481;28;20195;-65
2023/03/09 01:02:19;;;;;;;20.48;14.68;;;;;;;;;;5093464;28;20199;-65
2023/03/09 01:04:46;;;;;;;22.60;14.27;;;;;;;;;;5092876;28;20196;-65
2023/03/09 01:07:14;;;;;;;19.83;13.50;;;;;;;;;;5093490;28;20254;-65
2023/03/09 01:09:42;;;;;;;23.35;14.60;;;;;;;;;;5093069;28;20219;-65
2023/03/09 01:12:09;;;;;;;21.35;14.52;;;;;;;;;;5093145;28;20191;-65
2023/03/09 01:14:36;;;;;;;18.75;13.18;;;;;;;;;;5093258;28;20273;-66
2023/03/09 01:17:04;;;;;;;21.85;14.73;;;;;;;;;;5093035;28;20284;-65
2023/03/09 01:19:31;;;;;;;23.95;15.30;;;;;;;;;;5093107;28;20249;-65
2023/03/09 01:22:00;;;;;;;21.67;14.15;;;;;;;;;;5093052;28;20198;-65
2023/03/09 01:24:29;;;;;;;23.58;16.73;;;;;;;;;;5092994;28;20686;-65
2023/03/09 01:26:56;;;;;;;21.73;15.55;;;;;;;;;;5092974;28;20219;-65
2023/03/09 01:29:23;;;;;;;23.17;14.30;;;;;;;;;;5093544;28;20535;-66
2023/03/09 01:31:50;;;;;;;23.88;16.35;;;;;;;;;;5093033;28;20194;-65
2023/03/09 01:34:17;;;;;;;21.55;15.23;;;;;;;;;;5092998;28;20244;-65
2023/03/09 01:36:45;;;;;;;23.42;15.77;;;;;;;;;;5093137;28;20237;-66
2023/03/09 01:39:12;;;;;;;22.27;15.80;;;;;;;;;;5092924;28;20282;-65
2023/03/09 01:41:40;;;;;;;22.75;14.65;;;;;;;;;;5092871;28;20202;-65
2023/03/09 01:44:12;;;;;;;23.25;14.32;;;;;;;;;;5092908;28;20188;-65
2023/03/09 01:46:49;;;;;;;22.95;15.55;;;;;;;;;;5092845;28;20658;-65
2023/03/09 01:49:21;;;;;;;24.52;15.43;;;;;;;;;;5092921;28;20223;-65
2023/03/09 01:51:50;;;;;;;19.27;14.07;;;;;;;;;;5093002;28;20192;-65
2023/03/09 01:54:19;;;;;;;24.00;16.88;;;;;;;;;;5092759;28;20191;-65
2023/03/09 01:56:49;;;;;;;27.38;16.45;;;;;;;;;;5092670;28;20227;-65
2023/03/09 01:59:17;;;;;;;24.42;16.30;;;;;;;;;;5092738;28;20199;-65
2023/03/09 02:01:45;;;;;;;22.20;14.50;;;;;;;;;;5092590;28;20200;-66
2023/03/09 02:04:14;;;;;;;22.85;14.77;;;;;;;;;;5092703;28;20211;-64
2023/03/09 02:06:41;;;;;;;23.48;15.05;;;;;;;;;;5092661;28;20192;-65
2023/03/09 02:09:13;;;;;;;21.65;14.13;;;;;;;;;;5092653;28;20562;-64
2023/03/09 02:11:40;;;;;;;24.85;15.88;;;;;;;;;;5092622;28;20715;-65
2023/03/09 02:14:09;;;;;;;23.38;14.90;;;;;;;;;;5092798;28;20555;-65
2023/03/09 02:16:36;;;;;;;26.92;16.67;;;;;;;;;;5092825;28;20249;-66
2023/03/09 02:19:04;;;;;;;23.92;15.32;;;;;;;;;;5096257;28;20226;-66
2023/03/09 02:21:35;;;;;;;26.60;15.65;;;;;;;;;;5096476;28;20191;-64
2023/03/09 02:24:07;;;;;;;22.98;15.00;;;;;;;;;;5096299;28;20565;-65
2023/03/09 02:26:36;;;;;;;27.45;17.50;;;;;;;;;;5096563;28;20230;-65
2023/03/09 02:29:05;;;;;;;27.77;15.90;;;;;;;;;;5096094;28;20701;-65
2023/03/09 02:31:32;;;;;;;28.50;17.65;;;;;;;;;;5096221;28;20200;-65
2023/03/09 02:33:59;;;;;;;25.58;16.67;;;;;;;;;;5096315;28;20204;-65
2023/03/09 02:36:27;;;;;;;24.55;15.30;;;;;;;;;;5096016;28;20195;-66
2023/03/09 02:38:54;;;;;;;22.55;14.80;;;;;;;;;;5095984;28;20803;-65
2023/03/09 02:41:21;;;;;;;27.02;15.95;;;;;;;;;;5096125;28;20218;-65
2023/03/09 02:43:51;;;;;;;28.15;15.77;;;;;;;;;;5096249;28;20225;-65
2023/03/09 02:46:19;;;;;;;30.05;16.20;;;;;;;;;;5096096;28;20198;-66
2023/03/09 02:48:46;;;;;;;26.50;18.27;;;;;;;;;;5096018;28;20196;-66
2023/03/09 02:51:13;;;;;;;25.15;16.50;;;;;;;;;;5095814;28;20196;-66
2023/03/09 02:53:41;;;;;;;26.63;16.88;;;;;;;;;;5095837;28;20196;-65
2023/03/09 02:56:08;;;;;;;23.95;16.45;;;;;;;;;;5095684;28;20195;-66
2023/03/09 02:58:35;;;;;;;27.30;16.83;;;;;;;;;;5095945;28;20198;-66
2023/03/09 03:01:02;;;;;;;23.90;16.25;;;;;;;;;;5095701;28;20191;-66
2023/03/09 03:03:31;;;;;;;23.77;16.95;;;;;;;;;;5095634;28;20274;-66
2023/03/09 03:05:58;;;;;;;30.30;18.33;;;;;;;;;;5095350;28;20253;-65
2023/03/09 03:08:25;;;;;;;25.83;16.08;;;;;;;;;;5095676;28;20544;-64
2023/03/09 03:10:52;;;;;;;28.15;17.98;;;;;;;;;;5095237;28;20227;-65
2023/03/09 03:13:22;;;;;;;27.50;16.15;;;;;;;;;;5095395;28;20281;-64
2023/03/09 03:15:49;;;;;;;25.63;16.02;;;;;;;;;;5095382;28;20619;-65
2023/03/09 03:18:16;;;;;;;26.17;16.88;;;;;;;;;;5095013;28;20248;-65
2023/03/09 03:20:44;;;;;;;29.10;17.48;;;;;;;;;;5095466;28;20192;-65
2023/03/09 03:23:11;;;;;;;24.83;16.70;;;;;;;;;;5095401;28;20197;-65
2023/03/09 03:25:38;;;;;;;26.30;16.13;;;;;;;;;;5095291;28;20207;-64
2023/03/09 03:28:05;;;;;;;24.08;15.68;;;;;;;;;;5094770;28;20196;-65
2023/03/09 03:30:33;;;;;;;24.58;16.45;;;;;;;;;;5094960;28;20219;-65
2023/03/09 03:33:00;;;;;;;25.08;15.90;;;;;;;;;;5095033;28;20251;-65
2023/03/09 03:35:28;;;;;;;29.73;17.30;;;;;;;;;;5095059;28;20240;-65
2023/03/09 03:37:56;;;;;;;24.25;15.05;;;;;;;;;;5094827;28;20758;-65
2023/03/09 03:40:23;;;;;;;28.45;17.00;;;;;;;;;;5094836;28;20195;-65
2023/03/09 03:42:50;;;;;;;25.95;15.27;;;;;;;;;;5094791;28;20249;-65
2023/03/09 03:45:18;;;;;;;24.40;15.05;;;;;;;;;;5094684;28;20651;-64
2023/03/09 03:47:45;;;;;;;22.00;15.35;;;;;;;;;;5094927;28;20194;-65
2023/03/09 03:50:15;;;;;;;21.75;13.68;;;;;;;;;;5094780;28;20215;-64
2023/03/09 03:52:42;;;;;;;27.25;15.80;;;;;;;;;;5094769;28;20191;-65
2023/03/09 03:55:11;;;;;;;21.67;13.65;;;;;;;;;;5094579;28;20722;-65
2023/03/09 03:57:38;;;;;;;22.33;14.23;;;;;;;;;;5094670;28;20593;-65
2023/03/09 04:00:09;;;;;;;23.50;14.70;;;;;;;;;;5094488;28;20189;-64
2023/03/09 04:02:36;;;;;;;24.20;14.60;;;;;;;;;;5094653;28;20245;-65
2023/03/09 04:05:04;;;;;;;21.88;13.68;;;;;;;;;;5094431;28;20199;-65
2023/03/09 04:07:31;;;;;;;24.45;15.10;;;;;;;;;;5094307;28;20284;-65
2023/03/09 04:09:58;;;;;;;22.80;14.00;;;;;;;;;;5094281;28;20219;-65
2023/03/09 04:12:26;;;;;;;24.17;12.90;;;;;;;;;;5094432;28;20235;-65
2023/03/09 04:14:53;;;;;;;23.27;14.18;;;;;;;;;;5094352;28;20229;-65
2023/03/09 04:17:20;;;;;;;20.58;13.13;;;;;;;;;;5094196;28;20222;-65
2023/03/09 04:19:48;;;;;;;21.50;13.50;;;;;;;;;;5094291;28;20194;-65
2023/03/09 04:22:15;;;;;;;19.60;13.00;;;;;;;;;;5094176;28;20195;-65
2023/03/09 04:24:42;;;;;;;20.75;15.10;;;;;;;;;;5093961;28;20191;-65
2023/03/09 04:27:09;;;;;;;19.52;13.27;;;;;;;;;;5093900;28;20648;-65
2023/03/09 04:29:39;;;;;;;20.45;13.57;;;;;;;;;;5093866;28;20268;-65
2023/03/09 04:32:06;;;;;;;21.55;14.30;;;;;;;;;;5094017;28;20191;-65
2023/03/09 04:34:34;;;;;;;21.27;14.10;;;;;;;;;;5093845;28;20202;-65
2023/03/09 04:37:01;;;;;;;19.90;14.25;;;;;;;;;;5093757;28;20654;-65
2023/03/09 04:39:28;;;;;;;22.63;12.95;;;;;;;;;;5093120;28;20199;-65
2023/03/09 04:41:55;;;;;;;20.00;14.55;;;;;;;;;;5093913;28;20282;-65
2023/03/09 04:44:22;;;;;;;26.38;15.60;;;;;;;;;;5093842;28;20610;-65
2023/03/09 04:46:50;;;;;;;25.73;14.75;;;;;;;;;;5093809;28;20192;-65
2023/03/09 04:49:17;;;;;;;23.98;14.68;;;;;;;;;;5093442;28;20195;-66
2023/03/09 04:51:45;;;;;;;22.77;14.85;;;;;;;;;;5093574;28;20241;-67
2023/03/09 04:54:12;;;;;;;22.83;15.68;;;;;;;;;;5093430;28;20199;-65
2023/03/09 04:56:39;;;;;;;19.48;13.15;;;;;;;;;;5093403;28;20650;-65
2023/03/09 04:59:06;;;;;;;21.13;14.23;;;;;;;;;;5093576;28;20222;-65
2023/03/09 05:01:33;;;;;;;19.45;14.23;;;;;;;;;;5093444;28;20615;-66
2023/03/09 05:04:01;;;;;;;23.55;16.38;;;;;;;;;;5093881;28;20635;-65
2023/03/09 05:06:28;;;;;;;21.35;14.65;;;;;;;;;;5093227;28;20677;-65
2023/03/09 05:08:59;;;;;;;20.42;13.63;;;;;;;;;;5093227;28;20195;-65
2023/03/09 05:11:26;;;;;;;23.55;14.32;;;;;;;;;;5093086;28;20304;-65
2023/03/09 05:13:53;;;;;;;25.23;17.23;;;;;;;;;;5093166;28;20245;-65
2023/03/09 05:16:21;;;;;;;21.90;15.55;;;;;;;;;;5093242;28;20200;-65
2023/03/09 05:18:50;;;;;;;21.02;15.70;;;;;;;;;;5093060;28;20226;-66
2023/03/09 05:21:18;;;;;;;26.40;17.80;;;;;;;;;;5093004;28;20190;-65
2023/03/09 05:23:45;;;;;;;24.30;16.02;;;;;;;;;;5093166;28;20646;-65
2023/03/09 05:26:13;;;;;;;22.98;16.13;;;;;;;;;;5093221;28;20203;-65
2023/03/09 05:28:41;;;;;;;21.75;15.38;;;;;;;;;;5093085;28;20198;-65
2023/03/09 05:31:08;;;;;;;23.30;15.82;;;;;;;;;;5092958;28;20227;-65
2023/03/09 05:33:36;;;;;;;27.25;16.75;;;;;;;;;;5092802;28;20223;-65
2023/03/09 05:36:03;;;;;;;26.15;16.27;;;;;;;;;;5092639;28;20234;-65
2023/03/09 05:38:31;;;;;;;22.60;15.50;;;;;;;;;;5092921;28;20726;-65
2023/03/09 05:40:58;;;;;;;27.95;18.48;;;;;;;;;;5092861;28;20285;-65
2023/03/09 05:43:25;;;;;;;26.88;17.70;;;;;;;;;;5092946;28;20200;-65
2023/03/09 05:45:56;;;;;;;25.98;17.30;;;;;;;;;;5092903;28;20202;-65
2023/03/09 05:48:23;;;;;;;24.98;16.55;;;;;;;;;;5092831;28;20228;-65
2023/03/09 05:50:50;;;;;;;27.77;17.95;;;;;;;;;;5093264;28;20224;-65
2023/03/09 05:53:18;;;;;;;28.55;18.08;;;;;;;;;;5097093;28;20230;-65
2023/03/09 05:55:51;;;;;;;25.50;18.38;;;;;;;;;;5096841;28;20194;-64
2023/03/09 05:58:18;;;;;;;28.02;19.80;;;;;;;;;;5096874;28;20223;-64
2023/03/09 06:00:45;;;;;;;27.70;17.80;;;;;;;;;;5096705;28;20202;-65
2023/03/09 06:03:13;;;;;;;26.42;18.65;;;;;;;;;;5096929;28;20202;-66
2023/03/09 06:05:42;;;;;;;26.90;17.65;;;;;;;;;;5096822;28;20187;-66
2023/03/09 06:08:09;;;;;;;26.67;17.60;;;;;;;;;;5096819;28;20195;-66
2023/03/09 06:10:37;;;;;;;30.73;19.75;;;;;;;;;;5096503;28;20574;-66
2023/03/09 06:13:07;;;;;;;26.73;17.90;;;;;;;;;;5096611;28;20223;-66
2023/03/09 06:15:34;;;;;;;30.50;19.55;;;;;;;;;;5096595;28;20221;-66
2023/03/09 06:18:01;;;;;;;31.40;20.40;;;;;;;;;;5096306;28;20318;-66
2023/03/09 06:20:28;;;;;;;30.40;21.05;;;;;;;;;;5096650;28;20290;-65
2023/03/09 06:22:55;;;;;;;28.17;17.98;;;;;;;;;;5096491;28;20238;-66
2023/03/09 06:25:22;;;;;;;27.80;18.92;;;;;;;;;;5096295;28;20195;-66
2023/03/09 06:27:51;;;;;;;26.50;18.58;;;;;;;;;;5096186;28;20230;-66
2023/03/09 06:30:21;;;;;;;29.55;19.38;;;;;;;;;;5096378;28;20327;-65
2023/03/09 06:32:48;;;;;;;30.15;19.60;;;;;;;;;;5096149;28;20192;-65
2023/03/09 06:35:16;;;;;;;26.60;18.05;;;;;;;;;;5096118;28;20596;-65
2023/03/09 06:37:43;;;;;;;25.13;18.10;;;;;;;;;;5096192;28;20665;-65
2023/03/09 06:40:12;;;;;;;25.98;18.13;;;;;;;;;;5096035;28;20195;-65
2023/03/09 06:42:40;;;;;;;25.13;18.45;;;;;;;;;;5095906;28;20198;-65
2023/03/09 06:45:09;;;;;;;25.48;17.45;;;;;;;;;;5095794;28;20196;-65
2023/03/09 06:47:38;;;;;;;25.42;18.17;;;;;;;;;;5095967;28;20195;-66
2023/03/09 06:50:06;;;;;;;24.45;17.27;;;;;;;;;;5095834;28;20215;-66
2023/03/09 06:52:33;;;;;;;23.70;17.60;;;;;;;;;;5095754;28;20260;-65
2023/03/09 06:55:00;;;;;;;23.70;18.00;;;;;;;;;;5095659;28;20278;-66
2023/03/09 06:57:27;;;;;;;25.27;17.02;;;;;;;;;;5095882;28;20226;-66
2023/03/09 06:59:54;;;;;;;21.45;16.15;;;;;;;;;;5095647;28;20192;-66
2023/03/09 07:02:21;;;;;;;21.10;16.77;;;;;;;;;;5095173;28;20195;-65
2023/03/09 07:04:49;;;;;;;28.73;17.50;;;;;;;;;;5095393;28;20295;-66
2023/03/09 07:07:18;;;;;;;23.50;16.90;;;;;;;;;;5095410;28;20607;-66
2023/03/09 07:09:45;;;;;;;23.80;15.93;;;;;;;;;;5095358;28;20196;-65
2023/03/09 07:12:12;;;;;;;21.17;16.55;;;;;;;;;;5095502;28;20269;-66
2023/03/09 07:14:39;;;;;;;21.02;16.25;;;;;;;;;;5095269;28;20647;-66
2023/03/09 07:17:06;;;;;;;20.52;16.20;;;;;;;;;;5095109;28;20261;-66
2023/03/09 07:19:33;;;;;;;19.92;16.27;;;;;;;;;;5095545;28;20200;-66
2023/03/09 07:22:02;;;;;;;19.13;14.85;;;;;;;;;;5095088;28;20526;-66
2023/03/09 07:24:29;;;;;;;20.23;15.25;;;;;;;;;;5095271;28;20189;-66
2023/03/09 07:26:57;;;;;;;20.95;14.70;;;;;;;;;;5095004;28;20722;-66
2023/03/09 07:29:24;;;;;;;21.60;14.77;;;;;;;;;;5095165;28;20192;-66
2023/03/09 07:31:51;;;;;;;18.05;14.05;;;;;;;;;;5094998;28;20281;-66
2023/03/09 07:34:18;;;;;;;18.40;14.45;;;;;;;;;;5094965;28;20670;-67
2023/03/09 07:36:46;;;;;;;17.88;14.23;;;;;;;;;;5094912;28;20196;-66
2023/03/09 07:39:16;;;;;;;18.63;14.75;;;;;;;;;;5094829;28;20202;-66
2023/03/09 07:41:43;;;;;;;17.33;13.82;;;;;;;;;;5095069;28;20248;-66
2023/03/09 07:44:10;;;;;;;16.73;13.85;;;;;;;;;;5095020;28;20195;-66
2023/03/09 07:46:37;;;;;;;17.52;13.90;;;;;;;;;;5094750;28;20215;-65
2023/03/09 07:49:04;;;;;;;18.80;14.75;;;;;;;;;;5094730;28;20198;-66
2023/03/09 07:51:32;;;;;;;20.95;15.88;;;;;;;;;;5094517;28;20686;-66
2023/03/09 07:53:59;;;;;;;14.32;12.60;;;;;;;;;;5094531;28;20202;-67
2023/03/09 07:56:27;;;;;;;19.95;15.10;;;;;;;;;;5094611;28;20236;-66
2023/03/09 07:58:57;;;;;;;17.02;14.65;;;;;;;;;;5094297;28;20212;-66
2023/03/09 08:01:24;;;;;;;18.58;14.52;;;;;;;;;;5094161;28;20196;-66
2023/03/09 08:03:51;;;;;;;18.63;14.75;;;;;;;;;;5093751;28;20195;-64
2023/03/09 08:06:19;;;;;;;16.38;14.18;;;;;;;;;;5094160;28;20709;-62
2023/03/09 08:08:46;;;;;;;16.48;14.05;;;;;;;;;;5094336;28;20187;-68
2023/03/09 08:11:14;;;;;;;16.20;14.50;;;;;;;;;;5094219;28;20599;-62
2023/03/09 08:13:43;;;;;;;17.90;14.27;;;;;;;;;;5094217;28;20249;-62
2023/03/09 08:16:10;;;;;;;17.58;14.70;;;;;;;;;;5093990;28;20197;-64
2023/03/09 08:18:38;;;;;;;17.15;14.00;;;;;;;;;;5093961;28;20221;-76
2023/03/09 08:21:06;;;;;;;19.30;13.70;;;;;;;;;;5093967;28;20198;-68
2023/03/09 08:23:34;;;;;;;17.60;13.88;;;;;;;;;;5093897;28;20192;-67
2023/03/09 08:26:01;;;;;;;17.45;13.57;;;;;;;;;;5093800;28;20192;-61
2023/03/09 08:28:28;;;;;;;21.55;14.38;;;;;;;;;;5093941;28;20552;-66
2023/03/09 08:30:57;;;;;;;16.90;13.98;;;;;;;;;;5093732;28;20241;-66
2023/03/09 08:33:24;;;;;;;17.15;14.50;;;;;;;;;;5093694;28;20580;-63
2023/03/09 08:35:51;;;;;;;23.83;15.18;;;;;;;;;;5093922;28;20237;-61
2023/03/09 08:38:18;;;;;;;17.35;14.55;;;;;;;;;;5092988;28;20245;-62
2023/03/09 08:40:45;;;;;;;19.45;16.50;;;;;;;;;;5093719;28;20620;-68
2023/03/09 08:43:12;;;;;;;19.15;15.15;;;;;;;;;;5093538;28;20287;-63
2023/03/09 08:45:39;;;;;;;20.95;15.73;;;;;;;;;;5093838;28;20194;-66
2023/03/09 08:48:08;;;;;;;18.77;15.38;;;;;;;;;;5093599;28;20357;-66
2023/03/09 08:50:35;;;;;;;17.83;15.18;;;;;;;;;;5093572;28;20195;-68
2023/03/09 08:53:02;;;;;;;21.25;16.20;;;;;;;;;;5093526;28;20666;-74
2023/03/09 08:55:29;;;;;;;18.67;15.30;;;;;;;;;;5093562;28;20198;-66
2023/03/09 08:57:58;;;;;;;20.30;15.63;;;;;;;;;;5093273;28;20188;-62
2023/03/09 09:00:25;;;;;;;19.02;14.55;;;;;;;;;;5093251;28;20249;-69
2023/03/09 09:02:52;;;;;;;19.85;16.67;;;;;;;;;;5093478;28;20241;-64
2023/03/09 09:05:20;;;;;;;20.40;16.35;;;;;;;;;;5093295;28;20203;-69
2023/03/09 09:07:48;;;;;;;18.73;15.27;;;;;;;;;;5093243;28;20200;-68
2023/03/09 09:10:15;;;;;;;22.60;17.33;;;;;;;;;;5093079;28;20189;-69
2023/03/09 09:12:45;;;;;;;17.70;14.82;;;;;;;;;;5093064;28;20224;-65
2023/03/09 09:15:13;;;;;;;21.83;17.02;;;;;;;;;;5093130;28;20218;-66
2023/03/09 09:17:41;;;;;;;23.25;17.33;;;;;;;;;;5092728;28;20227;-73
2023/03/09 09:20:09;;;;;;;20.63;16.75;;;;;;;;;;5093086;28;20191;-62
2023/03/09 09:22:37;;;;;;;21.90;17.90;;;;;;;;;;5092976;28;20240;-72
2023/03/09 09:25:08;;;;;;;24.48;18.75;;;;;;;;;;5092947;28;20185;-66
2023/03/09 09:27:35;;;;;;;23.58;18.70;;;;;;;;;;5092932;28;20196;-70
2023/03/09 09:30:02;;;;;;;25.50;17.90;;;;;;;;;;5092976;28;20286;-69
2023/03/09 09:32:33;;;;;;;18.88;16.00;;;;;;;;;;5092778;28;20314;-68
2023/03/09 09:35:00;;;;;;;23.23;17.95;;;;;;;;;;5092775;28;20619;-72
2023/03/09 09:37:28;;;;;;;20.13;16.55;;;;;;;;;;5092913;28;20655;-72
2023/03/09 09:39:58;;;;;;;23.85;18.67;;;;;;;;;;5092665;28;20816;-69
2023/03/09 09:42:30;;;;;;;20.92;16.65;;;;;;;;;;5093063;28;20288;-68
2023/03/09 09:44:58;;;;;;;19.80;16.83;;;;;;;;;;5092992;28;20562;-69
2023/03/09 09:47:30;;;;;;;21.27;16.83;;;;;;;;;;5092677;28;20185;-66
2023/03/09 09:50:02;;;;;;;20.85;16.80;;;;;;;;;;5092704;28;20605;-66
2023/03/09 09:52:36;;;;;;;19.23;16.45;;;;;;;;;;5092927;28;20302;-64
2023/03/09 09:55:13;;;;;;;23.10;18.85;;;;;;;;;;5092753;28;20191;-67
2023/03/09 09:57:46;;;;;;;20.13;15.77;;;;;;;;;;5094656;28;20646;-69
2023/03/09 10:00:16;;;;;;;23.30;17.27;;;;;;;;;;5092824;28;20188;-69
2023/03/09 10:02:57;;;;;;;23.70;18.75;;;;;;;;;;5092582;28;20198;-68
2023/03/09 10:05:27;;;;;;;23.30;17.67;;;;;;;;;;5092580;28;20677;-69
2023/03/09 10:07:56;;;;;;;21.08;17.05;;;;;;;;;;5092867;28;20535;-65
2023/03/09 10:10:29;;;;;;;22.35;17.80;;;;;;;;;;5092671;28;20550;-71
2023/03/09 10:12:56;;;;;;;27.30;17.40;;;;;;;;;;5091118;28;20310;-63
2023/03/09 10:15:25;;;;;;;24.20;17.90;;;;;;;;;;5092715;28;20603;-73
2023/03/09 10:17:55;;;;;;;23.25;17.60;;;;;;;;;;5092285;28;20669;-75
2023/03/09 10:20:25;;;;;;;21.50;18.00;;;;;;;;;;5094115;28;20195;-72
2023/03/09 10:22:54;;;;;;;21.73;17.65;;;;;;;;;;5092517;28;20245;-81
2023/03/09 10:25:22;;;;;;;24.25;17.60;;;;;;;;;;5096402;28;20238;-63
2023/03/09 10:27:56;;;;;;;21.45;17.27;;;;;;;;;;5092656;28;20534;-63
2023/03/09 10:30:29;;;;;;;24.98;18.08;;;;;;;;;;5092340;28;20220;-66
2023/03/09 10:32:57;;;;;;;25.58;18.85;;;;;;;;;;5092423;28;20219;-65
2023/03/09 10:35:28;;;;;;;22.42;18.63;;;;;;;;;;5092420;28;20682;-65
2023/03/09 10:37:55;;;;;;;25.95;18.83;;;;;;;;;;5092940;28;20535;-68
2023/03/09 10:40:24;;;;;;;22.80;18.02;;;;;;;;;;5096051;28;20221;-66
2023/03/09 10:42:52;;;;;;;22.10;16.60;;;;;;;;;;5095888;28;20203;-65
2023/03/09 10:45:23;;;;;;;25.42;18.67;;;;;;;;;;5095500;28;20198;-66
2023/03/09 10:47:57;;;;;;;26.13;17.95;;;;;;;;;;5095870;28;20203;-61
2023/03/09 10:50:26;;;;;;;24.65;17.92;;;;;;;;;;5095747;28;20195;-68
2023/03/09 10:52:54;;;;;;;29.45;18.92;;;;;;;;;;5095390;28;20250;-66
2023/03/09 10:55:34;;;;;;;22.92;16.73;;;;;;;;;;5095689;28;20192;-65
2023/03/09 10:58:07;;;;;;;24.85;18.08;;;;;;;;;;5095659;28;20282;-67
2023/03/09 11:00:35;;;;;;;23.13;17.55;;;;;;;;;;5095797;28;20276;-66
2023/03/09 11:03:03;;;;;;;24.92;17.80;;;;;;;;;;5095464;28;20195;-68
2023/03/09 11:05:31;;;;;;;23.83;17.70;;;;;;;;;;5095800;28;20200;-64
2023/03/09 11:08:02;;;;;;;21.48;17.02;;;;;;;;;;5095586;28;20231;-66
2023/03/09 11:10:30;;;;;;;22.35;17.40;;;;;;;;;;5095346;28;20203;-65
2023/03/09 11:13:00;;;;;;;25.35;18.50;;;;;;;;;;5095306;28;20670;-70
2023/03/09 11:15:31;;;;;;;25.15;16.65;;;;;;;;;;5095708;28;20655;-66
2023/03/09 11:17:58;;;;;;;23.25;17.73;;;;;;;;;;5095730;28;20227;-64
2023/03/09 11:20:28;;;;;;;27.92;18.80;;;;;;;;;;5095391;28;20287;-64
2023/03/09 11:22:59;;;;;;;24.15;19.65;;;;;;;;;;5095053;28;20199;-64
2023/03/09 11:25:32;;;;;;;22.95;17.23;;;;;;;;;;5095566;28;20193;-71
2023/03/09 11:28:01;;;;;;;24.40;18.00;;;;;;;;;;5095085;28;20196;-67
2023/03/09 11:30:31;;;;;;;25.52;19.20;;;;;;;;;;5095106;28;20211;-77
2023/03/09 11:33:00;;;;;;;23.15;19.08;;;;;;;;;;5095164;28;20556;-70
2023/03/09 11:35:27;;;;;;;26.77;19.15;;;;;;;;;;5094879;28;20670;-62
2023/03/09 11:37:56;;;;;;;28.05;19.63;;;;;;;;;;5094724;28;20196;-67
2023/03/09 11:40:27;;;;;;;25.05;18.50;;;;;;;;;;5094821;28;20197;-63
2023/03/09 11:42:57;;;;;;;25.45;18.75;;;;;;;;;;5095066;28;20608;-80
2023/03/09 11:45:28;;;;;;;23.65;18.67;;;;;;;;;;5094894;28;20235;-65
2023/03/09 11:47:58;;;;;;;23.55;19.17;;;;;;;;;;5094817;28;20231;-74
2023/03/09 11:50:29;;;;;;;26.75;18.73;;;;;;;;;;5094209;28;20223;-71
2023/03/09 11:52:59;;;;;;;22.17;17.65;;;;;;;;;;5094512;28;20739;-72
2023/03/09 11:55:32;;;;;;;28.30;18.80;;;;;;;;;;5094677;28;20191;-71
2023/03/09 11:58:03;;;;;;;24.67;18.50;;;;;;;;;;5094619;28;20536;-72
2023/03/09 12:00:32;;;;;;;22.52;19.45;;;;;;;;;;5094573;28;20195;-70
2023/03/09 12:03:02;;;;;;;27.05;18.27;;;;;;;;;;5094331;28;20292;-72
2023/03/09 12:05:32;;;;;;;23.02;18.42;;;;;;;;;;5094155;28;20220;-70
2023/03/09 12:08:01;;;;;;;22.90;18.05;;;;;;;;;;5094652;28;20198;-71
2023/03/09 12:10:29;;;;;;;28.65;19.45;;;;;;;;;;5094271;28;20739;-72
2023/03/09 12:12:59;;;;;;;26.85;21.33;;;;;;;;;;5094353;28;20212;-71
2023/03/09 12:15:32;;;;;;;23.67;18.58;;;;;;;;;;5094279;28;20558;-70
2023/03/09 12:18:01;;;;;;;22.67;18.13;;;;;;;;;;5094139;28;20224;-71
2023/03/09 12:20:32;;;;;;;26.20;19.25;;;;;;;;;;5094161;28;20195;-72
2023/03/09 12:22:59;;;;;;;25.40;18.10;;;;;;;;;;5094117;28;20602;-62
2023/03/09 12:25:27;;;;;;;25.92;19.35;;;;;;;;;;5094399;28;20195;-81
2023/03/09 12:27:56;;;;;;;25.42;20.60;;;;;;;;;;5094172;28;20214;-72
2023/03/09 12:30:30;;;;;;;26.98;19.77;;;;;;;;;;5093819;28;20192;-62
2023/03/09 12:33:00;;;;;;;22.88;19.10;;;;;;;;;;5093946;28;20674;-65
2023/03/09 12:35:46;;;;;;;22.35;18.50;;;;;;;;;;5093889;28;20194;-64
2023/03/09 12:38:26;;;;;;;25.65;18.88;;;;;;;;;;5093382;28;20555;-64
2023/03/09 12:40:54;;;;;;;25.70;19.25;;;;;;;;;;5093619;28;20278;-68
2023/03/09 12:43:54;;;;;;;29.63;20.55;;;;;;;;;;5093814;28;20204;-71
2023/03/09 12:46:40;;;;;;;25.08;19.35;;;;;;;;;;5093373;28;20192;-63
2023/03/09 12:49:16;;;;;;;28.10;20.17;;;;;;;;;;5093381;28;20244;-65
2023/03/09 12:51:45;;;;;;;23.98;18.75;;;;;;;;;;5093457;28;20226;-65
2023/03/09 12:54:21;;;;;;;25.00;18.80;;;;;;;;;;5093622;28;20199;-66
2023/03/09 12:56:55;;;;;;;24.40;18.35;;;;;;;;;;5093107;28;20666;-72
2023/03/09 12:59:25;;;;;;;25.05;18.27;;;;;;;;;;5093173;28;20216;-66
2023/03/09 13:01:52;;;;;;;27.40;18.67;;;;;;;;;;5092613;28;20279;-65
2023/03/09 13:04:20;;;;;;;23.90;18.48;;;;;;;;;;5093472;28;20197;-63
2023/03/09 13:06:56;;;;;;;25.48;19.90;;;;;;;;;;5093363;28;20207;-68
2023/03/09 13:09:26;;;;;;;27.48;20.10;;;;;;;;;;5093247;28;20195;-64
2023/03/09 13:12:00;;;;;;;27.80;20.35;;;;;;;;;;5093081;28;20502;-64
2023/03/09 13:14:46;;;;;;;25.75;20.10;;;;;;;;;;5093170;28;20245;-63
2023/03/09 13:17:29;;;;;;;24.30;18.80;;;;;;;;;;5092893;28;20266;-64
2023/03/09 13:19:57;;;;;;;30.60;20.65;;;;;;;;;;5092814;28;20189;-72
2023/03/09 13:22:31;;;;;;;29.27;20.40;;;;;;;;;;5092984;28;20656;-79
2023/03/09 13:25:24;;;;;;;28.40;20.27;;;;;;;;;;5093095;28;20272;-69
2023/03/09 13:27:58;;;;;;;26.30;20.42;;;;;;;;;;5092981;28;20217;-66
2023/03/09 13:30:26;;;;;;;29.27;20.38;;;;;;;;;;5093135;28;20507;-63
2023/03/09 13:33:03;;;;;;;26.95;21.00;;;;;;;;;;5092738;28;20209;-63
2023/03/09 13:35:32;;;;;;;31.73;24.93;;;;;;;;;;5092115;28;20940;-63
2023/03/09 13:38:01;;;;;;;28.83;22.55;;;;;;;;;;5092894;28;20557;-63
2023/03/09 13:40:29;;;;;;;28.08;19.70;;;;;;;;;;5092968;28;20266;-63
2023/03/09 13:42:59;;;;;;;28.77;21.50;;;;;;;;;;5092885;28;20189;-63
2023/03/09 13:45:27;;;;;;;26.90;19.98;;;;;;;;;;5092914;28;20191;-63
2023/03/09 13:47:54;;;;;;;26.85;20.00;;;;;;;;;;5092713;28;20268;-63
2023/03/09 13:50:22;;;;;;;25.35;19.73;;;;;;;;;;5092961;28;20195;-63
2023/03/09 13:52:59;;;;;;;26.02;20.13;;;;;;;;;;5092784;28;20605;-63
2023/03/09 13:55:27;;;;;;;30.30;21.05;;;;;;;;;;5092847;28;20282;-63
2023/03/09 13:58:14;;;;;;;27.85;20.13;;;;;;;;;;5092704;28;20224;-62
2023/03/09 14:00:52;;;;;;;27.88;20.63;;;;;;;;;;5092928;28;20194;-63
2023/03/09 14:03:19;;;;;;;27.17;20.45;;;;;;;;;;5092970;28;20226;-62
2023/03/09 14:05:54;;;;;;;28.25;20.50;;;;;;;;;;5092643;28;20191;-62
2023/03/09 14:08:23;;;;;;;27.50;19.95;;;;;;;;;;5092629;28;20653;-62
2023/03/09 14:10:50;;;;;;;31.88;20.60;;;;;;;;;;5092477;28;20306;-63
2023/03/09 14:13:20;;;;;;;27.20;19.85;;;;;;;;;;5095531;28;20216;-62
2023/03/09 14:15:49;;;;;;;26.52;19.73;;;;;;;;;;5096425;28;20185;-63
2023/03/09 14:18:24;;;;;;;26.95;19.52;;;;;;;;;;5096347;28;20255;-63
2023/03/09 14:20:52;;;;;;;26.42;19.52;;;;;;;;;;5096474;28;20282;-63
2023/03/09 14:23:26;;;;;;;26.10;20.42;;;;;;;;;;5096352;28;20238;-64
2023/03/09 14:25:57;;;;;;;29.60;21.95;;;;;;;;;;5096240;28;20192;-63